Koulamoutou, Gabon
Current Conditions -  °F | °C
As of 4:00 AM on Thursday 23 Oct 2014 (Local Time) from FCPD Reporting Station
Overcast Overcast  
Wind Chill: 73°   Ceiling: 13300
Heat Index: 73°   Visibility: 6mi
Dew Point: 68°   Wind: 0mph
Humidity: 83%   Direction: NA
Pressure: 29.91"   Gusts: NA
Location:  1.12°S, 12.5°E
Report Text: FCPD 230300Z 00000KT 9999 SCT020 OVC133 23/20 Q1013
Loading
Personal Weather Stations






























Interactive Weather Map
Tropical Storm Tracking
New forecast layout! Learn more

10-Day Weather Forecast

Advertisements
Track Severe Weather on mobile